KILG

New Castle Airport

Wilmington, Delaware, USA
METAR KILG 141151Z 04003KT 6SM BR BKN005 OVC012 06/04 A3044 RMK AO2 SLP309 T00560044 10056 20033 53009
Observed Flight Rules
Dec-14 @ 11:51 UTC (29 minutes ago) Instrument Flight Rules
Wind Visibility Clouds Conditions
40° at 3 knots 6 miles
  • Broken at 500' AGL
  • Overcast at 1,200' AGL
  • Mist
Temperatures Readings
Current 6°C / 43°F
Dewpoint 4°C / 39°F
Humidity 87%
Altimeter 30.44" Hg
Pressure 1030.9 hPa
Elevation 28
METAR KILG 141151Z 04003KT 6SM BR BKN005 OVC012 06/04 A3044 RMK AO2 SLP309 T00560044 10056 20033 53009
Observed Flight Rules
Dec-14 @ 11:51 UTC
(29 minutes ago)
IFR
Wind Visibility
40° at 3 knots 6 miles
Clouds
  • Broken at 500' AGL
  • Overcast at 1,200' AGL
Conditions
  • Mist
Temperature Dewpoint
6°C / 43°F 4°C / 39°F
Humidity Altimeter Pressure
87% 30.44" Hg 1030.9 hPa